Time;durP1;ratioP1;P1;durP2;ratioP2;P2;SDS_P1;SDS_P2;PMS_P1;PMS_P2;Temp;Humidity;BMP_temperature;BMP_pressure;BME280_temperature;BME280_humidity;BME280_pressure;Samples;Min_cycle;Max_cycle;Signal;HPM_P1;HPM_P2
2022/02/03 00:02:31;;;;;;;17.48;10.90;;;;;;;7.92;47.15;94420.53;5011929;28;20577;-78
2022/02/03 00:05:08;;;;;;;18.08;11.30;;;;;;;7.52;47.97;94436.63;5011626;28;20190;-80
2022/02/03 00:24:24;;;;;;;13.73;8.93;;;;;;;6.89;49.74;94468.56;5029148;28;20178;-79
2022/02/03 00:27:17;;;;;;;16.35;10.25;;;;;;;8.01;48.01;94466.00;5021555;28;20236;-78
2022/02/03 00:33:07;;;;;;;14.63;9.75;;;;;;;7.52;49.45;94469.75;5012666;28;20646;-79
2022/02/03 00:51:13;;;;;;;15.25;10.57;;;;;;;7.56;49.21;94458.56;5011026;28;20190;-78
2022/02/03 00:53:39;;;;;;;16.75;11.23;;;;;;;7.92;48.69;94457.03;5010981;28;20189;-76
2022/02/03 00:56:15;;;;;;;15.00;10.05;;;;;;;7.92;48.72;94488.34;5026063;28;20216;-77
2022/02/03 00:59:06;;;;;;;15.38;10.48;;;;;;;8.47;48.01;94460.06;5011134;28;20196;-78
2022/02/03 01:01:36;;;;;;;15.27;10.85;;;;;;;8.90;46.85;94477.28;5011947;28;20182;-76
2022/02/03 01:04:09;;;;;;;17.33;10.75;;;;;;;8.31;47.97;94481.91;5011498;28;20205;-76
2022/02/03 01:06:46;;;;;;;17.45;11.68;;;;;;;8.36;48.48;94489.75;5011749;28;20201;-76
2022/02/03 01:09:19;;;;;;;16.60;11.25;;;;;;;7.92;49.05;94501.41;5010261;28;20190;-78
2022/02/03 01:12:01;;;;;;;16.90;11.10;;;;;;;7.86;49.22;94486.75;5011184;28;20201;-77
2022/02/03 01:17:30;;;;;;;16.35;11.00;;;;;;;8.10;48.63;94482.78;5010232;28;20245;-77
2022/02/03 01:20:41;;;;;;;17.33;10.98;;;;;;;8.55;47.96;94498.78;5010865;28;20756;-77
2022/02/03 01:45:26;;;;;;;18.20;12.05;;;;;;;8.34;48.13;94494.44;5010185;28;20205;-78
2022/02/03 01:48:21;;;;;;;18.52;12.07;;;;;;;8.73;47.99;94495.75;5009799;28;20217;-77
2022/02/03 01:53:39;;;;;;;17.27;11.65;;;;;;;8.37;48.32;94503.63;5009741;28;20198;-78
2022/02/03 01:56:09;;;;;;;17.35;11.95;;;;;;;8.68;47.84;94514.00;5010313;28;20198;-78
2022/02/03 01:58:45;;;;;;;17.60;12.63;;;;;;;8.66;47.42;94510.88;5009119;28;20264;-77
2022/02/03 02:01:27;;;;;;;17.05;12.05;;;;;;;8.31;48.65;94518.44;5009930;28;20263;-78
2022/02/03 02:04:13;;;;;;;17.25;12.23;;;;;;;8.28;49.13;94521.56;5009996;28;20202;-76
2022/02/03 02:07:18;;;;;;;16.58;11.55;;;;;;;8.56;47.79;94518.63;5010098;28;20205;-77
2022/02/03 02:10:07;;;;;;;18.30;11.80;;;;;;;8.45;48.52;94527.41;5009663;28;20217;-78
2022/02/03 02:12:46;;;;;;;18.92;11.80;;;;;;;8.77;47.75;94522.94;5008569;28;20214;-78
2022/02/03 02:15:46;;;;;;;17.15;11.63;;;;;;;8.74;47.53;94518.22;5010150;28;20197;-78
2022/02/03 02:19:05;;;;;;;18.45;12.88;;;;;;;8.27;48.89;94527.81;5009673;28;20237;-74
2022/02/03 02:42:13;;;;;;;16.58;12.07;;;;;;;8.83;47.81;94550.66;5009685;28;20728;-76
2022/02/03 02:44:51;;;;;;;16.13;11.77;;;;;;;9.17;46.64;94546.66;5008839;28;20272;-74
2022/02/03 02:47:28;;;;;;;15.82;11.07;;;;;;;9.00;47.22;94559.13;5009221;28;20206;-75
2022/02/03 02:50:07;;;;;;;17.50;11.95;;;;;;;8.75;47.51;94558.97;5009203;28;20264;-77
2022/02/03 02:52:45;;;;;;;16.05;11.02;;;;;;;7.93;48.78;94558.56;5011629;28;20212;-78
2022/02/03 03:36:45;;;;;;;14.68;9.73;;;;;;;7.82;48.55;94609.06;5013678;28;20384;-78
2022/02/03 03:39:13;;;;;;;18.35;12.35;;;;;;;8.64;47.38;94599.13;5012972;28;20186;-78
2022/02/03 03:41:45;;;;;;;13.27;10.35;;;;;;;8.45;47.73;94621.41;5012731;28;20186;-78
2022/02/03 03:44:15;;;;;;;16.08;10.50;;;;;;;7.60;49.19;94625.72;5012346;28;20204;-76
2022/02/03 03:46:47;;;;;;;13.48;9.40;;;;;;;7.51;49.01;94611.56;5012573;28;20297;-79
2022/02/03 03:49:48;;;;;;;16.48;11.35;;;;;;;8.29;48.21;94619.72;5012228;28;20221;-76
2022/02/03 03:52:20;;;;;;;14.77;10.30;;;;;;;8.33;48.25;94620.78;5010632;28;20221;-75
2022/02/03 03:55:13;;;;;;;15.23;10.52;;;;;;;8.50;47.55;94624.09;5011644;28;20253;-76
2022/02/03 03:58:03;;;;;;;16.40;10.93;;;;;;;8.62;46.98;94619.47;5011906;28;20194;-78
2022/02/03 04:34:24;;;;;;;15.90;10.95;;;;;;;8.27;47.49;94681.00;5012237;28;20205;-81
2022/02/03 04:57:45;;;;;;;14.85;11.05;;;;;;;7.79;48.66;94718.28;5011484;28;20194;-81
2022/02/03 05:11:53;;;;;;;16.63;10.13;;;;;;;7.78;48.19;94742.78;5010512;28;20284;-77
2022/02/03 05:42:13;;;;;;;14.73;9.75;;;;;;;7.69;48.06;94812.03;4985512;28;20198;-77
2022/02/03 06:09:06;;;;;;;66.28;44.78;;;;;;;7.86;48.68;94849.31;4989498;28;20669;-74
2022/02/03 06:14:26;;;;;;;13.07;9.50;;;;;;;7.74;46.70;94846.00;4989952;28;20217;-79
2022/02/03 06:22:41;;;;;;;16.02;9.55;;;;;;;7.79;46.73;94867.72;4990437;28;20194;-73
2022/02/03 06:27:53;;;;;;;14.40;10.60;;;;;;;7.38;47.79;94882.97;4989053;28;20214;-78
2022/02/03 06:30:21;;;;;;;12.77;6.75;;;;;;;6.71;48.75;94906.28;4988929;28;20199;-74
2022/02/03 06:32:48;;;;;;;13.40;8.85;;;;;;;7.10;47.58;94894.22;4988953;28;20234;-77
2022/02/03 06:35:19;;;;;;;15.27;10.95;;;;;;;7.03;48.51;94896.97;4988400;28;20195;-74
2022/02/03 06:37:48;;;;;;;15.60;10.05;;;;;;;7.41;47.33;94903.38;4989025;28;20202;-72
2022/02/03 06:40:16;;;;;;;15.18;10.38;;;;;;;7.58;46.48;94888.53;5003859;28;20253;-72
2022/02/03 06:42:45;;;;;;;18.83;10.48;;;;;;;8.12;46.04;94911.25;4989708;28;20569;-75
2022/02/03 06:48:03;;;;;;;14.45;9.45;;;;;;;6.99;47.25;94911.47;4992964;28;20179;-78
2022/02/03 06:50:40;;;;;;;13.35;10.05;;;;;;;7.39;46.77;94918.47;4992264;28;20281;-75
2022/02/03 06:53:20;;;;;;;14.80;10.30;;;;;;;7.47;46.47;94931.09;4993572;28;20281;-75
2022/02/03 06:55:54;;;;;;;14.07;7.30;;;;;;;7.15;47.50;94942.00;4993453;28;20194;-75
2022/02/03 07:03:38;;;;;;;15.30;7.88;;;;;;;7.24;46.25;94945.03;4993698;28;20678;-77
2022/02/03 07:06:05;;;;;;;12.88;8.50;;;;;;;7.25;46.88;94945.81;4991680;28;20719;-73
2022/02/03 07:08:34;;;;;;;14.77;10.27;;;;;;;7.89;45.92;94953.97;4993587;28;20253;-75
2022/02/03 07:11:02;;;;;;;16.45;10.65;;;;;;;7.74;45.90;94960.75;4998821;28;20226;-76
2022/02/03 07:13:29;;;;;;;14.50;10.35;;;;;;;7.42;46.65;94951.88;5000701;28;20207;-76
2022/02/03 07:15:58;;;;;;;15.48;10.63;;;;;;;7.05;47.35;94957.47;4995518;28;20198;-73
2022/02/03 07:18:25;;;;;;;15.20;10.30;;;;;;;7.19;47.32;94956.16;4993836;28;20337;-77
2022/02/03 07:20:52;;;;;;;14.73;10.55;;;;;;;7.31;47.49;94966.53;4993278;28;20195;-77
2022/02/03 07:23:19;;;;;;;15.40;11.20;;;;;;;7.69;46.49;94958.88;4993568;28;20685;-74
2022/02/03 07:25:46;;;;;;;16.13;11.07;;;;;;;7.30;46.46;94953.75;4993193;28;20194;-73
2022/02/03 07:28:13;;;;;;;16.70;11.50;;;;;;;7.17;47.40;94965.25;4995031;28;20234;-74
2022/02/03 07:30:40;;;;;;;15.57;10.85;;;;;;;7.58;46.13;94962.34;4997087;28;20194;-73
2022/02/03 07:33:08;;;;;;;16.60;10.90;;;;;;;7.55;46.59;94977.66;4993538;28;20202;-74
2022/02/03 07:35:35;;;;;;;16.42;10.70;;;;;;;7.46;46.64;94979.06;4995000;28;20179;-73
2022/02/03 07:38:07;;;;;;;16.88;11.10;;;;;;;8.41;44.88;94966.81;5008748;28;20349;-76
2022/02/03 07:40:35;;;;;;;14.80;9.27;;;;;;;7.31;46.06;94950.09;4994109;28;20721;-77
2022/02/03 07:43:05;;;;;;;15.43;10.23;;;;;;;7.33;46.55;94977.53;4993181;28;20717;-74
2022/02/03 07:45:32;;;;;;;14.55;10.98;;;;;;;7.61;46.37;94992.38;4993337;28;20209;-77
2022/02/03 07:47:59;;;;;;;17.92;11.77;;;;;;;8.23;45.82;94995.75;4992255;28;20179;-73
2022/02/03 07:50:29;;;;;;;15.93;8.48;;;;;;;7.91;45.67;94992.88;4993202;28;20737;-78
2022/02/03 07:52:56;;;;;;;15.60;10.75;;;;;;;8.42;45.12;94963.94;4992126;28;20249;-76
2022/02/03 07:55:25;;;;;;;18.13;10.75;;;;;;;8.47;45.28;95003.19;4992174;28;20208;-77
2022/02/03 07:57:54;;;;;;;16.00;10.57;;;;;;;8.45;45.36;95000.00;4996656;28;20217;-73
2022/02/03 08:00:23;;;;;;;13.57;9.90;;;;;;;7.80;45.48;94991.13;4994272;28;20187;-77
2022/02/03 08:03:14;;;;;;;14.88;10.65;;;;;;;7.93;45.86;94983.81;4996733;28;20202;-78
2022/02/03 08:05:48;;;;;;;20.05;11.32;;;;;;;8.23;45.33;95020.00;4994667;28;20283;-77
2022/02/03 08:08:26;;;;;;;15.25;10.73;;;;;;;8.25;44.95;95025.81;4992001;28;20207;-76
2022/02/03 08:11:04;;;;;;;14.35;10.50;;;;;;;7.96;45.32;95032.88;4992861;28;20612;-80
2022/02/03 08:13:44;;;;;;;20.02;11.35;;;;;;;8.33;45.23;95038.47;4992012;28;20253;-77
2022/02/03 08:17:01;;;;;;;15.68;10.25;;;;;;;8.48;44.86;95033.50;4992108;28;20207;-71
2022/02/03 08:19:15;;;;;;;15.80;10.93;;;;;;;8.47;44.46;95047.56;4994044;28;20211;-74
2022/02/03 08:21:47;;;;;;;15.00;10.32;;;;;;;8.48;44.60;95045.75;4991518;28;20260;-74
2022/02/03 08:24:29;;;;;;;13.10;10.00;;;;;;;8.48;45.00;95054.41;4991628;28;20626;-72
2022/02/03 08:32:30;;;;;;;16.17;9.88;;;;;;;8.10;44.61;95059.50;4991529;28;20204;-76
2022/02/03 08:35:09;;;;;;;13.77;10.20;;;;;;;8.27;44.71;95070.75;4991178;28;20226;-72
2022/02/03 08:38:27;;;;;;;19.80;10.77;;;;;;;7.97;44.67;95072.81;4991478;28;20210;-75
2022/02/03 08:43:15;;;;;;;14.57;10.00;;;;;;;8.13;44.38;95085.91;4990881;28;20229;-72
2022/02/03 08:45:43;;;;;;;14.15;9.80;;;;;;;8.12;45.25;95083.50;4991578;28;20199;-73
2022/02/03 08:48:11;;;;;;;16.13;10.02;;;;;;;8.19;44.69;95084.19;4991627;28;20202;-75
2022/02/03 08:50:40;;;;;;;16.67;11.10;;;;;;;8.41;44.55;95072.00;4991829;28;20264;-78
2022/02/03 09:39:53;;;;;;;17.45;10.55;;;;;;;8.70;43.38;95123.16;4990280;28;20198;-71
2022/02/03 09:58:20;;;;;;;13.70;10.40;;;;;;;9.25;42.44;95141.50;4989960;28;20206;-76
2022/02/03 10:04:13;;;;;;;17.05;10.30;;;;;;;9.60;41.55;95138.56;4990152;28;20718;-75
2022/02/03 10:06:21;;;;;;;14.70;10.30;;;;;;;9.87;41.45;95149.88;4992374;28;20297;-74
2022/02/03 10:08:53;;;;;;;12.60;9.70;;;;;;;9.85;40.93;95146.69;4990230;28;20709;-78
2022/02/03 10:11:21;;;;;;;15.38;10.20;;;;;;;9.58;41.09;95156.31;4990658;28;20191;-75
2022/02/03 10:14:03;;;;;;;18.58;12.02;;;;;;;9.19;42.49;95132.78;4990138;28;20195;-74
2022/02/03 10:16:34;;;;;;;15.15;10.45;;;;;;;9.90;41.59;95158.03;4990294;28;20198;-76
2022/02/03 10:19:09;;;;;;;14.98;10.73;;;;;;;9.42;42.12;95146.66;4990333;28;20236;-75
2022/02/03 10:21:37;;;;;;;13.70;10.57;;;;;;;9.33;42.16;95161.19;4994475;28;20197;-79
2022/02/03 10:24:07;;;;;;;13.48;10.40;;;;;;;10.02;41.04;95155.25;4993709;28;20198;-76
2022/02/03 10:26:40;;;;;;;14.93;10.50;;;;;;;9.79;40.91;95152.91;4994408;28;20682;-71
2022/02/03 10:29:13;;;;;;;16.05;9.98;;;;;;;9.61;41.72;95140.13;4994201;28;20815;-77
2022/02/03 10:31:43;;;;;;;14.13;10.02;;;;;;;9.62;41.54;95146.91;4994449;28;20281;-76
2022/02/03 10:34:16;;;;;;;16.42;10.50;;;;;;;10.14;40.76;95140.25;4994358;28;20195;-74
2022/02/03 10:48:24;;;;;;;12.90;9.48;;;;;;;11.01;39.82;95141.53;4993715;28;20206;-77
2022/02/03 10:51:12;;;;;;;14.18;9.55;;;;;;;11.77;37.95;95123.63;4994384;28;20333;-74
2022/02/03 11:06:59;;;;;;;9.82;8.07;;;;;;;12.02;37.14;95123.72;4993503;28;20198;-80
2022/02/03 11:09:47;;;;;;;10.93;8.30;;;;;;;12.26;36.54;95111.69;4993517;28;20250;-77
2022/02/03 11:12:35;;;;;;;13.68;7.95;;;;;;;12.01;36.65;95106.38;5002511;28;20198;-75
2022/02/03 11:15:03;;;;;;;11.13;8.60;;;;;;;11.53;37.28;95122.44;5001044;28;20191;-76
2022/02/03 11:17:32;;;;;;;10.30;8.48;;;;;;;12.18;36.46;95117.44;4995765;28;20248;-76
2022/02/03 11:20:04;;;;;;;11.30;8.10;;;;;;;12.53;36.20;95108.84;4991932;28;20191;-77
2022/02/03 11:22:44;;;;;;;14.05;7.78;;;;;;;11.75;36.31;95109.97;4992993;28;20270;-77
2022/02/03 12:18:22;;;;;;;9.70;6.70;;;;;;;11.20;37.97;95132.22;4991780;28;20325;-71
2022/02/03 12:21:03;;;;;;;11.27;7.55;;;;;;;11.97;36.40;95115.84;4991122;28;20228;-73
2022/02/03 12:23:54;;;;;;;13.65;7.63;;;;;;;12.15;37.32;95121.38;4991401;28;20194;-72
2022/02/03 12:26:39;;;;;;;12.52;7.00;;;;;;;12.35;35.93;95127.75;4991772;28;20234;-72
2022/02/03 12:29:23;;;;;;;9.75;7.43;;;;;;;11.12;37.35;95132.69;4991451;28;20205;-70
2022/02/03 12:40:19;;;;;;;13.25;7.18;;;;;;;11.11;38.05;95125.88;4991900;28;20237;-80
2022/02/03 12:45:28;;;;;;;8.70;6.28;;;;;;;10.74;38.48;95138.19;4992239;28;20669;-78
2022/02/03 12:47:59;;;;;;;7.97;6.43;;;;;;;12.57;36.05;95105.41;4992304;28;20198;-79
2022/02/03 12:50:33;;;;;;;9.23;6.32;;;;;;;12.37;35.97;95123.78;4992481;28;20309;-77
2022/02/03 12:53:01;;;;;;;10.90;7.32;;;;;;;12.48;36.37;95129.88;4992455;28;20217;-78
2022/02/03 12:55:30;;;;;;;9.80;7.30;;;;;;;11.83;37.68;95143.59;5008523;28;20202;-81
2022/02/03 12:58:16;;;;;;;11.43;8.05;;;;;;;11.30;39.33;95147.22;4991541;28;20186;-78
2022/02/03 13:01:11;;;;;;;10.18;7.55;;;;;;;11.98;38.07;95130.53;4993286;28;20580;-80
2022/02/03 13:06:11;;;;;;;13.15;8.50;;;;;;;11.85;37.74;95128.38;5008531;28;20229;-77
2022/02/03 13:08:43;;;;;;;10.35;8.52;;;;;;;11.86;38.05;95116.84;4999074;28;20203;-83
2022/02/03 13:20:01;;;;;;;9.60;7.03;;;;;;;11.02;39.18;95161.47;5010972;28;20284;-78
2022/02/03 13:22:41;;;;;;;9.65;7.32;;;;;;;10.09;42.87;95148.06;4989770;28;20595;-78
2022/02/03 13:33:22;;;;;;;10.88;8.43;;;;;;;10.06;46.12;95195.63;4991658;28;20198;-78
2022/02/03 13:38:36;;;;;;;12.73;8.13;;;;;;;10.05;45.78;95204.53;4990380;28;20183;-79
2022/02/03 13:41:04;;;;;;;10.02;7.50;;;;;;;8.96;49.34;95215.78;4991374;28;20625;-77
2022/02/03 13:43:38;;;;;;;9.95;7.70;;;;;;;9.16;49.59;95208.25;4990517;28;20642;-78
2022/02/03 13:46:06;;;;;;;13.35;8.35;;;;;;;9.00;49.04;95168.03;4989523;28;20194;-76
2022/02/03 13:48:37;;;;;;;10.90;7.70;;;;;;;8.40;50.37;95200.19;4990607;28;20202;-74
2022/02/03 13:51:08;;;;;;;11.77;8.57;;;;;;;8.12;51.37;95198.34;4990140;28;20317;-75
2022/02/03 13:53:46;;;;;;;11.70;7.88;;;;;;;8.63;50.47;95195.66;4990326;28;20651;-73
2022/02/03 14:21:03;;;;;;;16.63;10.57;;;;;;;9.57;46.11;95186.09;4990390;28;20224;-74
2022/02/03 14:28:45;;;;;;;17.55;9.32;;;;;;;9.12;46.01;95221.00;4990360;28;20624;-75
2022/02/03 14:31:13;;;;;;;18.95;10.90;;;;;;;9.28;46.11;95221.25;4990374;28;20285;-76
2022/02/03 14:33:42;;;;;;;18.05;11.25;;;;;;;9.11;45.08;95226.50;4990280;28;20650;-76
2022/02/03 14:36:12;;;;;;;16.80;10.77;;;;;;;9.70;43.89;95191.00;4990830;28;20202;-77
2022/02/03 14:38:54;;;;;;;17.13;11.15;;;;;;;10.07;43.93;95207.69;4990748;28;20190;-76
2022/02/03 14:41:29;;;;;;;21.02;12.90;;;;;;;9.82;43.15;95221.25;4990092;28;20209;-74
2022/02/03 14:43:58;;;;;;;9.77;7.38;;;;;;;8.60;43.40;95227.47;4990554;28;20297;-74
2022/02/03 14:46:28;;;;;;;12.82;8.60;;;;;;;9.89;41.72;95221.09;4990169;28;20194;-71
2022/02/03 14:48:56;;;;;;;10.52;7.65;;;;;;;9.01;41.97;95229.72;4990375;28;20697;-74
2022/02/03 14:51:29;;;;;;;14.60;8.18;;;;;;;9.88;41.24;95229.94;4990640;28;20242;-77
2022/02/03 14:59:19;;;;;;;11.13;7.43;;;;;;;9.68;40.16;95230.50;4998562;28;20244;-73
2022/02/03 15:01:46;;;;;;;13.52;8.15;;;;;;;9.82;40.14;95241.38;4990024;28;20241;-73
2022/02/03 15:04:21;;;;;;;11.52;7.68;;;;;;;9.85;40.55;95236.44;4992803;28;20214;-75
2022/02/03 15:06:56;;;;;;;12.02;8.02;;;;;;;9.86;40.05;95237.25;4998314;28;20210;-77
2022/02/03 15:12:10;;;;;;;12.23;8.50;;;;;;;9.84;40.42;95255.03;4995880;28;20229;-77
2022/02/03 15:14:40;;;;;;;11.75;8.25;;;;;;;9.60;40.50;95240.59;4995895;28;20202;-78
2022/02/03 15:17:07;;;;;;;12.63;8.20;;;;;;;10.01;40.40;95266.25;4994770;28;20203;-78
2022/02/03 15:19:48;;;;;;;13.88;6.82;;;;;;;9.29;40.66;95268.09;4998947;28;20202;-71
2022/02/03 15:22:15;;;;;;;11.27;6.80;;;;;;;9.25;40.34;95271.44;5006584;28;20190;-77
2022/02/03 15:24:43;;;;;;;12.77;7.82;;;;;;;9.78;39.41;95266.47;5000576;28;20206;-75
2022/02/03 15:27:11;;;;;;;12.55;8.20;;;;;;;10.31;38.15;95261.41;4994594;28;20691;-79
2022/02/03 15:29:38;;;;;;;8.98;7.10;;;;;;;9.94;37.64;95276.91;4993718;28;20270;-75
2022/02/03 15:32:05;;;;;;;10.30;7.47;;;;;;;9.40;38.84;95279.50;5000481;28;20210;-77
2022/02/03 15:34:36;;;;;;;9.85;7.10;;;;;;;9.54;38.03;95257.22;5007004;28;20198;-79
2022/02/03 15:37:11;;;;;;;11.25;7.22;;;;;;;9.65;37.56;95278.03;4993980;28;20209;-77
2022/02/03 15:39:46;;;;;;;12.48;7.57;;;;;;;9.57;37.32;95285.50;4993109;28;20209;-72
2022/02/03 15:42:17;;;;;;;11.52;6.88;;;;;;;9.50;37.88;95283.06;4991263;28;20268;-78
2022/02/03 15:44:47;;;;;;;10.70;7.28;;;;;;;9.96;37.34;95300.22;4997211;28;20198;-77
2022/02/03 15:47:26;;;;;;;9.73;6.93;;;;;;;9.39;36.87;95299.63;4993300;28;20739;-74
2022/02/03 16:19:14;;;;;;;13.52;8.75;;;;;;;9.37;37.72;95369.69;4991601;28;20194;-77
2022/02/03 16:21:49;;;;;;;11.15;7.57;;;;;;;9.43;37.87;95389.69;4992315;28;20301;-75
2022/02/03 16:54:15;;;;;;;26.05;10.45;;;;;;;9.14;38.41;95443.78;5011195;28;20200;-76
2022/02/03 16:56:44;;;;;;;15.75;9.15;;;;;;;9.00;38.00;95437.25;5010795;28;20212;-72
2022/02/03 16:59:11;;;;;;;13.73;9.63;;;;;;;8.90;38.01;95449.34;5010478;28;20174;-77
2022/02/03 17:01:38;;;;;;;12.93;9.80;;;;;;;8.82;38.27;95445.25;5010715;28;20197;-72
2022/02/03 17:04:05;;;;;;;11.98;9.07;;;;;;;8.59;39.22;95450.53;5010490;28;20215;-78
2022/02/03 17:06:32;;;;;;;13.13;9.63;;;;;;;8.23;39.74;95446.31;5010906;28;20235;-77
2022/02/03 17:08:59;;;;;;;14.50;9.75;;;;;;;8.30;39.17;95445.44;5010491;28;20672;-76
2022/02/03 17:11:26;;;;;;;12.40;8.85;;;;;;;8.60;38.58;95446.88;5010248;28;20218;-71
2022/02/03 17:13:53;;;;;;;13.48;9.38;;;;;;;8.42;38.97;95452.25;5010278;28;20210;-74
2022/02/03 17:16:23;;;;;;;15.77;9.38;;;;;;;8.45;38.71;95451.78;5010131;28;20196;-72
2022/02/03 17:18:52;;;;;;;12.75;8.70;;;;;;;8.44;39.63;95454.63;5009902;28;20237;-71
2022/02/03 17:21:26;;;;;;;14.23;9.55;;;;;;;8.74;39.36;95461.28;5011346;28;20883;-75
2022/02/03 17:23:53;;;;;;;13.90;9.27;;;;;;;8.75;38.64;95455.03;5009906;28;20194;-74
2022/02/03 17:26:37;;;;;;;12.00;8.93;;;;;;;8.57;39.18;95460.41;5000998;28;20584;-70
2022/02/03 17:29:34;;;;;;;13.10;9.43;;;;;;;8.49;38.95;95481.66;4988263;28;20206;-77
2022/02/03 17:32:09;;;;;;;28.20;19.17;;;;;;;8.71;39.75;95495.72;4990300;28;20348;-72
2022/02/03 18:06:08;;;;;;;14.65;9.60;;;;;;;7.45;41.56;95528.38;4988123;28;20198;-70
2022/02/03 18:10:10;;;;;;;14.10;10.00;;;;;;;7.36;42.18;95500.22;4997061;28;20217;-78
2022/02/03 18:52:30;;;;;;;15.60;10.40;;;;;;;7.32;42.30;95540.78;4993171;28;20241;-72
2022/02/03 19:03:07;;;;;;;17.83;10.38;;;;;;;6.79;43.23;95556.97;5012203;28;20201;-71
2022/02/03 20:05:35;;;;;;;11.90;8.75;;;;;;;7.14;41.13;95570.25;5011273;28;20194;-72
2022/02/03 20:08:13;;;;;;;12.63;8.20;;;;;;;6.92;41.84;95575.09;4991535;28;20195;-70
2022/02/03 20:10:45;;;;;;;12.57;8.15;;;;;;;6.31;42.04;95583.84;4991528;28;20202;-71
2022/02/03 20:13:12;;;;;;;13.63;8.30;;;;;;;6.70;41.46;95573.91;4990444;28;20307;-69
2022/02/03 20:15:41;;;;;;;12.75;7.88;;;;;;;6.40;42.60;95572.19;4990386;28;20202;-71
2022/02/03 20:18:12;;;;;;;11.32;7.90;;;;;;;6.14;42.68;95558.38;4996379;28;20241;-71
2022/02/03 20:20:42;;;;;;;13.30;8.35;;;;;;;6.60;41.99;95565.00;4994585;28;20225;-74
2022/02/03 20:23:15;;;;;;;14.43;8.50;;;;;;;7.23;41.05;95548.09;4991112;28;20195;-71
2022/02/03 20:25:51;;;;;;;13.82;8.20;;;;;;;6.48;41.81;95564.88;4992111;28;20241;-70
2022/02/03 20:28:18;;;;;;;14.20;8.20;;;;;;;6.84;41.36;95564.16;4990743;28;20191;-68
2022/02/03 20:30:45;;;;;;;13.70;7.90;;;;;;;6.69;41.20;95561.91;4991839;28;20198;-71
2022/02/03 20:33:11;;;;;;;12.73;7.32;;;;;;;6.17;42.15;95569.34;4989430;28;20226;-71
2022/02/03 20:35:39;;;;;;;11.98;6.88;;;;;;;6.64;41.48;95563.56;4990381;28;20617;-71
2022/02/03 20:38:08;;;;;;;11.07;7.07;;;;;;;6.75;41.00;95550.59;4987994;28;20288;-74
2022/02/03 20:40:35;;;;;;;11.25;7.22;;;;;;;7.37;44.21;95564.38;4989819;28;20206;-70
2022/02/03 20:43:08;;;;;;;15.68;9.18;;;;;;;6.90;41.62;95569.31;4987551;28;20254;-75
2022/02/03 20:45:35;;;;;;;30.58;18.70;;;;;;;6.91;41.76;95570.91;4991496;28;20217;-69
2022/02/03 20:48:03;;;;;;;10.25;6.68;;;;;;;6.75;41.60;95550.59;4990528;28;20747;-70
2022/02/03 20:50:30;;;;;;;14.63;7.88;;;;;;;6.47;42.17;95571.13;4989320;28;20756;-70
2022/02/03 20:52:58;;;;;;;12.15;7.53;;;;;;;6.47;41.65;95573.72;4990227;28;20226;-69
2022/02/03 20:55:29;;;;;;;11.68;7.55;;;;;;;6.59;41.24;95572.00;4985785;28;20218;-69
2022/02/03 20:57:57;;;;;;;10.88;7.18;;;;;;;6.42;41.18;95547.53;4969919;28;20274;-69
2022/02/03 21:00:28;;;;;;;11.90;7.60;;;;;;;6.63;41.36;95567.97;4971821;28;20685;-70
2022/02/03 21:03:02;;;;;;;11.48;7.03;;;;;;;6.63;40.92;95564.56;4968040;28;20234;-69
2022/02/03 21:05:29;;;;;;;14.25;7.60;;;;;;;6.89;40.97;95577.34;4998050;28;20225;-70
2022/02/03 21:07:57;;;;;;;11.48;6.68;;;;;;;6.63;40.82;95573.16;5010068;28;20256;-73
2022/02/03 21:10:30;;;;;;;10.55;7.07;;;;;;;6.56;41.53;95574.22;5009932;28;20224;-71
2022/02/03 21:12:58;;;;;;;11.52;7.13;;;;;;;6.65;41.04;95571.16;5009883;28;20303;-71
2022/02/03 21:15:32;;;;;;;11.05;7.10;;;;;;;6.46;41.55;95577.31;5009712;28;20202;-70
2022/02/03 21:18:04;;;;;;;12.70;8.07;;;;;;;6.89;40.87;95569.53;5006089;28;20328;-70
2022/02/03 21:20:31;;;;;;;11.57;7.25;;;;;;;7.07;40.40;95575.53;4999572;28;20211;-69
2022/02/03 21:22:58;;;;;;;11.95;7.25;;;;;;;6.49;41.39;95574.31;5002266;28;20198;-68
2022/02/03 21:25:31;;;;;;;12.70;7.43;;;;;;;7.08;40.59;95566.69;4989826;28;20197;-70
2022/02/03 21:28:03;;;;;;;11.48;7.60;;;;;;;6.35;41.79;95565.00;4998176;28;20202;-73
2022/02/03 21:30:30;;;;;;;11.50;7.72;;;;;;;6.77;40.75;95563.44;4998383;28;20232;-71
2022/02/03 21:32:57;;;;;;;15.70;8.32;;;;;;;6.81;40.25;95575.00;4990298;28;20755;-70
2022/02/03 21:35:24;;;;;;;14.68;8.07;;;;;;;6.96;40.05;95573.66;5002030;28;20209;-70
2022/02/03 21:37:51;;;;;;;12.75;7.28;;;;;;;6.79;40.51;95583.03;5007351;28;20256;-71
2022/02/03 21:40:20;;;;;;;11.43;7.60;;;;;;;7.05;40.16;95577.56;4997031;28;20194;-69
2022/02/03 21:42:49;;;;;;;10.55;6.97;;;;;;;6.92;40.18;95577.69;4995368;28;20203;-70
2022/02/03 21:45:22;;;;;;;15.32;7.60;;;;;;;7.30;39.55;95566.28;4989507;28;20210;-70
2022/02/03 21:47:50;;;;;;;10.65;6.68;;;;;;;6.20;41.38;95576.72;4990176;28;20198;-70
2022/02/03 21:50:18;;;;;;;10.68;6.70;;;;;;;6.60;40.91;95558.00;4989275;28;20194;-68
2022/02/03 21:52:49;;;;;;;12.50;7.30;;;;;;;7.07;39.65;95570.34;4988603;28;20241;-71
2022/02/03 21:55:18;;;;;;;11.55;6.85;;;;;;;6.50;41.04;95575.06;4989261;28;20199;-70
2022/02/03 21:57:48;;;;;;;14.48;7.35;;;;;;;6.20;41.05;95580.13;4989875;28;20207;-72
2022/02/03 22:00:17;;;;;;;11.20;7.28;;;;;;;6.63;40.53;95541.13;4989241;28;20276;-72
2022/02/03 22:02:46;;;;;;;10.73;6.70;;;;;;;6.58;40.57;95560.00;4990082;28;20199;-70
2022/02/03 22:05:13;;;;;;;10.18;6.38;;;;;;;6.30;40.52;95579.66;4989992;28;20298;-72
2022/02/03 22:07:45;;;;;;;9.68;6.50;;;;;;;6.67;39.99;95569.13;4990166;28;20216;-71
2022/02/03 22:10:18;;;;;;;11.18;6.80;;;;;;;6.82;39.40;95555.78;4989218;28;20650;-72
2022/02/03 22:12:46;;;;;;;12.30;7.07;;;;;;;6.39;40.02;95555.75;4989651;28;20296;-71
2022/02/03 22:15:14;;;;;;;9.43;6.25;;;;;;;6.62;39.61;95555.16;4989020;28;20197;-72
2022/02/03 22:17:41;;;;;;;10.60;6.40;;;;;;;6.57;39.28;95547.97;4993744;28;20226;-71
2022/02/03 22:20:18;;;;;;;12.15;6.68;;;;;;;6.92;39.14;95556.84;4993458;28;20201;-71
2022/02/03 22:25:41;;;;;;;9.80;6.07;;;;;;;7.13;38.62;95558.25;4993529;28;20667;-70
2022/02/03 22:44:27;;;;;;;15.07;6.22;;;;;;;6.48;38.27;95579.72;4993045;28;20662;-70
2022/02/03 22:47:58;;;;;;;10.20;5.40;;;;;;;6.57;38.44;95579.22;4993361;28;20187;-70
2022/02/03 22:49:42;;;;;;;7.30;4.97;;;;;;;6.81;38.29;95575.00;4994775;28;20744;-70
2022/02/03 22:52:10;;;;;;;7.20;5.18;;;;;;;6.81;38.49;95585.41;4992508;28;20244;-69
2022/02/03 22:54:38;;;;;;;9.18;5.25;;;;;;;6.26;38.55;95586.31;4991894;28;20206;-70
2022/02/03 22:57:06;;;;;;;9.85;5.05;;;;;;;5.61;40.54;95587.47;4993161;28;20604;-69
2022/02/03 23:02:09;;;;;;;10.30;5.00;;;;;;;6.31;38.90;95584.66;4993206;28;20573;-70
2022/02/03 23:04:36;;;;;;;7.25;4.78;;;;;;;6.26;38.84;95578.50;4992486;28;20198;-71
2022/02/03 23:07:18;;;;;;;7.28;4.80;;;;;;;6.32;38.76;95588.84;4992879;28;20232;-69
2022/02/03 23:10:45;;;;;;;9.48;4.82;;;;;;;6.91;37.62;95589.16;4992286;28;20269;-71
2022/02/03 23:18:23;;;;;;;6.50;4.38;;;;;;;6.20;38.25;95582.75;4992674;28;20238;-72
2022/02/03 23:23:37;;;;;;;8.77;4.90;;;;;;;6.88;38.16;95586.16;5000484;28;20592;-71
2022/02/03 23:26:06;;;;;;;7.13;4.63;;;;;;;6.76;38.15;95580.88;4992305;28;20261;-71
2022/02/03 23:28:35;;;;;;;8.88;5.05;;;;;;;5.84;39.52;95592.97;4992430;28;20213;-72
2022/02/03 23:31:03;;;;;;;7.93;4.45;;;;;;;6.65;38.26;95573.75;4992728;28;20198;-71
2022/02/03 23:33:31;;;;;;;6.65;4.25;;;;;;;5.67;39.08;95555.44;4992689;28;20224;-72
2022/02/03 23:35:58;;;;;;;6.93;4.43;;;;;;;6.32;38.51;95586.25;4992339;28;20304;-71
2022/02/03 23:38:58;;;;;;;7.88;4.85;;;;;;;6.47;38.52;95573.72;4991795;28;20823;-70
2022/02/03 23:44:19;;;;;;;9.52;4.55;;;;;;;6.66;37.96;95575.34;4991570;28;20385;-69
